sensor_id;sensor_type;location;lat;lon;timestamp;P1;durP1;ratioP1;P2;durP2;ratioP2
70997;SDS011;58663;52.040;4.634;2023-04-12T00:02:10;5.68;;;2.10;;
70997;SDS011;58663;52.040;4.634;2023-04-12T00:04:35;6.22;;;2.50;;
70997;SDS011;58663;52.040;4.634;2023-04-12T00:07:01;6.80;;;2.80;;
70997;SDS011;58663;52.040;4.634;2023-04-12T00:09:27;5.63;;;2.10;;
70997;SDS011;58663;52.040;4.634;2023-04-12T00:11:57;8.82;;;2.90;;
70997;SDS011;58663;52.040;4.634;2023-04-12T00:14:23;5.53;;;2.40;;
70997;SDS011;58663;52.040;4.634;2023-04-12T00:16:49;13.05;;;3.03;;
70997;SDS011;58663;52.040;4.634;2023-04-12T00:19:15;9.02;;;2.45;;
70997;SDS011;58663;52.040;4.634;2023-04-12T00:21:41;10.65;;;2.30;;
70997;SDS011;58663;52.040;4.634;2023-04-12T00:24:07;7.05;;;2.30;;
70997;SDS011;58663;52.040;4.634;2023-04-12T00:26:32;8.35;;;3.00;;
70997;SDS011;58663;52.040;4.634;2023-04-12T00:28:58;4.22;;;2.17;;
70997;SDS011;58663;52.040;4.634;2023-04-12T00:31:23;4.47;;;2.05;;
70997;SDS011;58663;52.040;4.634;2023-04-12T00:33:48;7.82;;;2.78;;
70997;SDS011;58663;52.040;4.634;2023-04-12T00:36:14;6.63;;;2.60;;
70997;SDS011;58663;52.040;4.634;2023-04-12T00:38:39;8.25;;;2.38;;
70997;SDS011;58663;52.040;4.634;2023-04-12T00:41:06;7.07;;;2.00;;
70997;SDS011;58663;52.040;4.634;2023-04-12T00:43:31;4.80;;;2.33;;
70997;SDS011;58663;52.040;4.634;2023-04-12T00:45:57;6.95;;;2.03;;
70997;SDS011;58663;52.040;4.634;2023-04-12T00:48:23;7.03;;;2.42;;
70997;SDS011;58663;52.040;4.634;2023-04-12T00:50:48;4.93;;;2.40;;
70997;SDS011;58663;52.040;4.634;2023-04-12T00:53:15;5.85;;;1.85;;
70997;SDS011;58663;52.040;4.634;2023-04-12T00:55:44;3.15;;;1.58;;
70997;SDS011;58663;52.040;4.634;2023-04-12T00:58:10;4.55;;;1.80;;
70997;SDS011;58663;52.040;4.634;2023-04-12T01:00:37;9.68;;;1.98;;
70997;SDS011;58663;52.040;4.634;2023-04-12T01:03:03;5.80;;;1.60;;
70997;SDS011;58663;52.040;4.634;2023-04-12T01:05:29;6.38;;;2.38;;
70997;SDS011;58663;52.040;4.634;2023-04-12T01:15:55;2.83;;;1.75;;
70997;SDS011;58663;52.040;4.634;2023-04-12T01:18:24;4.72;;;2.15;;
70997;SDS011;58663;52.040;4.634;2023-04-12T01:20:58;4.20;;;1.80;;
70997;SDS011;58663;52.040;4.634;2023-04-12T01:28:31;7.20;;;2.35;;
70997;SDS011;58663;52.040;4.634;2023-04-12T01:30:58;7.93;;;1.77;;
70997;SDS011;58663;52.040;4.634;2023-04-12T01:33:25;5.55;;;1.48;;
70997;SDS011;58663;52.040;4.634;2023-04-12T01:35:55;4.47;;;2.08;;
70997;SDS011;58663;52.040;4.634;2023-04-12T01:38:22;7.28;;;2.40;;
70997;SDS011;58663;52.040;4.634;2023-04-12T01:40:48;2.90;;;1.85;;
70997;SDS011;58663;52.040;4.634;2023-04-12T01:43:14;3.28;;;1.67;;
70997;SDS011;58663;52.040;4.634;2023-04-12T01:45:40;7.25;;;1.80;;
70997;SDS011;58663;52.040;4.634;2023-04-12T01:48:09;2.88;;;1.67;;
70997;SDS011;58663;52.040;4.634;2023-04-12T01:50:54;2.13;;;1.50;;
70997;SDS011;58663;52.040;4.634;2023-04-12T01:56:23;4.25;;;1.63;;
70997;SDS011;58663;52.040;4.634;2023-04-12T01:58:52;5.32;;;1.50;;
70997;SDS011;58663;52.040;4.634;2023-04-12T02:01:18;3.00;;;1.70;;
70997;SDS011;58663;52.040;4.634;2023-04-12T02:03:43;5.50;;;2.15;;
70997;SDS011;58663;52.040;4.634;2023-04-12T02:06:10;6.43;;;1.83;;
70997;SDS011;58663;52.040;4.634;2023-04-12T02:08:36;6.40;;;1.75;;
70997;SDS011;58663;52.040;4.634;2023-04-12T02:11:10;4.50;;;1.80;;
70997;SDS011;58663;52.040;4.634;2023-04-12T02:13:35;3.60;;;1.70;;
70997;SDS011;58663;52.040;4.634;2023-04-12T02:16:01;3.83;;;1.63;;
70997;SDS011;58663;52.040;4.634;2023-04-12T02:18:27;3.63;;;1.90;;
70997;SDS011;58663;52.040;4.634;2023-04-12T02:20:52;2.60;;;1.50;;
70997;SDS011;58663;52.040;4.634;2023-04-12T02:23:18;4.38;;;1.77;;
70997;SDS011;58663;52.040;4.634;2023-04-12T02:25:43;2.47;;;1.83;;
70997;SDS011;58663;52.040;4.634;2023-04-12T02:28:10;2.40;;;1.50;;
70997;SDS011;58663;52.040;4.634;2023-04-12T02:30:36;4.90;;;2.03;;
70997;SDS011;58663;52.040;4.634;2023-04-12T02:33:02;3.95;;;1.60;;
70997;SDS011;58663;52.040;4.634;2023-04-12T02:35:30;4.05;;;2.38;;
70997;SDS011;58663;52.040;4.634;2023-04-12T02:37:56;4.15;;;1.90;;
70997;SDS011;58663;52.040;4.634;2023-04-12T02:40:21;7.63;;;2.10;;
70997;SDS011;58663;52.040;4.634;2023-04-12T02:42:47;3.85;;;2.08;;
70997;SDS011;58663;52.040;4.634;2023-04-12T02:45:12;2.13;;;1.40;;
70997;SDS011;58663;52.040;4.634;2023-04-12T02:47:38;2.58;;;1.70;;
70997;SDS011;58663;52.040;4.634;2023-04-12T02:50:05;4.22;;;1.90;;
70997;SDS011;58663;52.040;4.634;2023-04-12T02:52:31;4.28;;;2.00;;
70997;SDS011;58663;52.040;4.634;2023-04-12T02:54:57;4.05;;;2.13;;
70997;SDS011;58663;52.040;4.634;2023-04-12T02:57:22;5.53;;;2.22;;
70997;SDS011;58663;52.040;4.634;2023-04-12T02:59:51;2.20;;;1.80;;
70997;SDS011;58663;52.040;4.634;2023-04-12T03:02:17;2.75;;;2.05;;
70997;SDS011;58663;52.040;4.634;2023-04-12T03:04:43;4.93;;;1.90;;
70997;SDS011;58663;52.040;4.634;2023-04-12T03:07:10;3.28;;;1.92;;
70997;SDS011;58663;52.040;4.634;2023-04-12T03:09:36;4.05;;;2.20;;
70997;SDS011;58663;52.040;4.634;2023-04-12T03:12:02;6.20;;;1.80;;
70997;SDS011;58663;52.040;4.634;2023-04-12T03:14:28;5.38;;;1.77;;
70997;SDS011;58663;52.040;4.634;2023-04-12T03:16:53;6.15;;;2.20;;
70997;SDS011;58663;52.040;4.634;2023-04-12T03:19:19;4.53;;;2.10;;
70997;SDS011;58663;52.040;4.634;2023-04-12T03:21:44;3.63;;;2.05;;
70997;SDS011;58663;52.040;4.634;2023-04-12T03:24:10;5.28;;;1.80;;
70997;SDS011;58663;52.040;4.634;2023-04-12T03:26:35;5.20;;;2.38;;
70997;SDS011;58663;52.040;4.634;2023-04-12T03:29:01;3.85;;;1.73;;
70997;SDS011;58663;52.040;4.634;2023-04-12T03:31:32;3.83;;;2.13;;
70997;SDS011;58663;52.040;4.634;2023-04-12T03:33:58;2.72;;;1.63;;
70997;SDS011;58663;52.040;4.634;2023-04-12T03:36:24;3.80;;;2.00;;
70997;SDS011;58663;52.040;4.634;2023-04-12T03:38:51;1.95;;;1.50;;
70997;SDS011;58663;52.040;4.634;2023-04-12T03:41:16;2.55;;;1.67;;
70997;SDS011;58663;52.040;4.634;2023-04-12T03:43:42;4.03;;;2.08;;
70997;SDS011;58663;52.040;4.634;2023-04-12T03:46:07;3.55;;;1.88;;
70997;SDS011;58663;52.040;4.634;2023-04-12T03:48:33;2.88;;;2.05;;
70997;SDS011;58663;52.040;4.634;2023-04-12T03:50:58;3.05;;;1.85;;
70997;SDS011;58663;52.040;4.634;2023-04-12T03:53:24;3.20;;;1.70;;
70997;SDS011;58663;52.040;4.634;2023-04-12T03:55:51;4.30;;;2.10;;
70997;SDS011;58663;52.040;4.634;2023-04-12T03:58:17;4.90;;;2.13;;
70997;SDS011;58663;52.040;4.634;2023-04-12T04:00:43;3.45;;;2.33;;
70997;SDS011;58663;52.040;4.634;2023-04-12T04:03:09;6.50;;;2.47;;
70997;SDS011;58663;52.040;4.634;2023-04-12T04:05:34;2.85;;;2.10;;
70997;SDS011;58663;52.040;4.634;2023-04-12T04:08:00;2.85;;;2.20;;
70997;SDS011;58663;52.040;4.634;2023-04-12T04:10:29;3.90;;;2.20;;
70997;SDS011;58663;52.040;4.634;2023-04-12T04:12:54;5.15;;;2.03;;
70997;SDS011;58663;52.040;4.634;2023-04-12T04:15:20;5.30;;;2.50;;
70997;SDS011;58663;52.040;4.634;2023-04-12T04:17:45;3.22;;;2.08;;
70997;SDS011;58663;52.040;4.634;2023-04-12T04:20:12;3.58;;;2.30;;
70997;SDS011;58663;52.040;4.634;2023-04-12T04:22:37;3.70;;;2.10;;
70997;SDS011;58663;52.040;4.634;2023-04-12T04:25:03;5.40;;;2.78;;
70997;SDS011;58663;52.040;4.634;2023-04-12T04:27:30;6.38;;;2.90;;
70997;SDS011;58663;52.040;4.634;2023-04-12T04:29:58;3.63;;;2.55;;
70997;SDS011;58663;52.040;4.634;2023-04-12T04:32:26;6.18;;;2.70;;
70997;SDS011;58663;52.040;4.634;2023-04-12T04:34:54;6.30;;;3.13;;
70997;SDS011;58663;52.040;4.634;2023-04-12T04:37:20;6.65;;;3.35;;
70997;SDS011;58663;52.040;4.634;2023-04-12T04:39:46;6.30;;;3.20;;
70997;SDS011;58663;52.040;4.634;2023-04-12T04:42:11;7.53;;;3.05;;
70997;SDS011;58663;52.040;4.634;2023-04-12T04:44:37;4.68;;;3.05;;
70997;SDS011;58663;52.040;4.634;2023-04-12T04:47:02;6.70;;;3.65;;
70997;SDS011;58663;52.040;4.634;2023-04-12T04:49:29;5.60;;;3.60;;
70997;SDS011;58663;52.040;4.634;2023-04-12T04:51:54;7.50;;;4.38;;
70997;SDS011;58663;52.040;4.634;2023-04-12T04:54:20;9.75;;;4.32;;
70997;SDS011;58663;52.040;4.634;2023-04-12T04:56:45;6.13;;;4.03;;
70997;SDS011;58663;52.040;4.634;2023-04-12T04:59:10;7.53;;;4.20;;
70997;SDS011;58663;52.040;4.634;2023-04-12T05:01:36;7.15;;;4.28;;
70997;SDS011;58663;52.040;4.634;2023-04-12T05:04:01;6.18;;;3.47;;
70997;SDS011;58663;52.040;4.634;2023-04-12T05:06:27;5.53;;;3.58;;
70997;SDS011;58663;52.040;4.634;2023-04-12T05:08:52;5.22;;;3.83;;
70997;SDS011;58663;52.040;4.634;2023-04-12T05:11:18;6.43;;;4.35;;
70997;SDS011;58663;52.040;4.634;2023-04-12T05:13:43;7.93;;;4.25;;
70997;SDS011;58663;52.040;4.634;2023-04-12T05:16:09;11.45;;;4.78;;
70997;SDS011;58663;52.040;4.634;2023-04-12T05:18:35;7.70;;;4.45;;
70997;SDS011;58663;52.040;4.634;2023-04-12T05:21:04;10.00;;;4.75;;
70997;SDS011;58663;52.040;4.634;2023-04-12T05:23:35;12.52;;;4.93;;
70997;SDS011;58663;52.040;4.634;2023-04-12T05:26:02;11.95;;;4.50;;
70997;SDS011;58663;52.040;4.634;2023-04-12T05:28:27;6.65;;;4.80;;
70997;SDS011;58663;52.040;4.634;2023-04-12T05:30:53;10.52;;;4.93;;
70997;SDS011;58663;52.040;4.634;2023-04-12T05:33:18;13.00;;;5.43;;
70997;SDS011;58663;52.040;4.634;2023-04-12T05:35:43;15.10;;;5.38;;
70997;SDS011;58663;52.040;4.634;2023-04-12T05:38:09;13.65;;;5.47;;
70997;SDS011;58663;52.040;4.634;2023-04-12T05:40:34;7.80;;;4.68;;
70997;SDS011;58663;52.040;4.634;2023-04-12T05:43:00;8.50;;;4.70;;
70997;SDS011;58663;52.040;4.634;2023-04-12T05:45:26;11.88;;;4.38;;
70997;SDS011;58663;52.040;4.634;2023-04-12T05:47:51;14.00;;;3.72;;
70997;SDS011;58663;52.040;4.634;2023-04-12T05:50:17;15.50;;;5.30;;
70997;SDS011;58663;52.040;4.634;2023-04-12T05:52:44;8.23;;;3.45;;
70997;SDS011;58663;52.040;4.634;2023-04-12T05:55:10;24.05;;;3.95;;
70997;SDS011;58663;52.040;4.634;2023-04-12T05:57:35;21.30;;;3.63;;
70997;SDS011;58663;52.040;4.634;2023-04-12T06:00:01;18.08;;;4.07;;
70997;SDS011;58663;52.040;4.634;2023-04-12T06:02:31;14.25;;;3.67;;
70997;SDS011;58663;52.040;4.634;2023-04-12T06:04:56;12.32;;;3.33;;
70997;SDS011;58663;52.040;4.634;2023-04-12T06:07:22;14.70;;;3.40;;
70997;SDS011;58663;52.040;4.634;2023-04-12T06:09:47;18.15;;;3.53;;
70997;SDS011;58663;52.040;4.634;2023-04-12T06:12:13;18.25;;;4.03;;
70997;SDS011;58663;52.040;4.634;2023-04-12T06:14:39;20.58;;;3.30;;
70997;SDS011;58663;52.040;4.634;2023-04-12T06:17:04;16.63;;;3.55;;
70997;SDS011;58663;52.040;4.634;2023-04-12T06:19:29;21.55;;;3.67;;
70997;SDS011;58663;52.040;4.634;2023-04-12T06:21:55;21.38;;;4.97;;
70997;SDS011;58663;52.040;4.634;2023-04-12T06:24:21;23.60;;;3.22;;
70997;SDS011;58663;52.040;4.634;2023-04-12T06:26:46;17.17;;;3.53;;
70997;SDS011;58663;52.040;4.634;2023-04-12T06:29:11;18.58;;;2.85;;
70997;SDS011;58663;52.040;4.634;2023-04-12T06:31:37;22.58;;;3.55;;
70997;SDS011;58663;52.040;4.634;2023-04-12T06:34:02;15.88;;;3.30;;
70997;SDS011;58663;52.040;4.634;2023-04-12T06:36:27;12.73;;;3.28;;
70997;SDS011;58663;52.040;4.634;2023-04-12T06:38:53;19.95;;;2.65;;
70997;SDS011;58663;52.040;4.634;2023-04-12T06:41:19;18.48;;;3.40;;
70997;SDS011;58663;52.040;4.634;2023-04-12T06:43:44;11.85;;;2.88;;
70997;SDS011;58663;52.040;4.634;2023-04-12T06:46:10;26.80;;;3.47;;
70997;SDS011;58663;52.040;4.634;2023-04-12T06:48:35;23.90;;;3.30;;
70997;SDS011;58663;52.040;4.634;2023-04-12T06:51:01;20.48;;;3.10;;
70997;SDS011;58663;52.040;4.634;2023-04-12T06:53:26;16.85;;;2.53;;
70997;SDS011;58663;52.040;4.634;2023-04-12T06:55:51;9.38;;;2.45;;
70997;SDS011;58663;52.040;4.634;2023-04-12T06:58:17;29.40;;;3.10;;
70997;SDS011;58663;52.040;4.634;2023-04-12T07:00:43;12.88;;;1.88;;
70997;SDS011;58663;52.040;4.634;2023-04-12T07:03:08;24.52;;;3.10;;
70997;SDS011;58663;52.040;4.634;2023-04-12T07:05:36;21.20;;;2.50;;
70997;SDS011;58663;52.040;4.634;2023-04-12T07:08:03;16.50;;;2.47;;
70997;SDS011;58663;52.040;4.634;2023-04-12T07:10:28;12.95;;;2.42;;
70997;SDS011;58663;52.040;4.634;2023-04-12T07:12:54;32.28;;;3.53;;
70997;SDS011;58663;52.040;4.634;2023-04-12T07:15:20;24.05;;;2.70;;
70997;SDS011;58663;52.040;4.634;2023-04-12T07:17:46;18.50;;;2.30;;
70997;SDS011;58663;52.040;4.634;2023-04-12T07:20:11;16.70;;;2.45;;
70997;SDS011;58663;52.040;4.634;2023-04-12T07:22:36;22.02;;;2.30;;
70997;SDS011;58663;52.040;4.634;2023-04-12T07:25:02;15.52;;;2.13;;
70997;SDS011;58663;52.040;4.634;2023-04-12T07:27:30;7.13;;;1.77;;
70997;SDS011;58663;52.040;4.634;2023-04-12T07:29:55;14.65;;;2.25;;
70997;SDS011;58663;52.040;4.634;2023-04-12T07:32:22;11.27;;;2.53;;
70997;SDS011;58663;52.040;4.634;2023-04-12T07:34:47;13.38;;;2.33;;
70997;SDS011;58663;52.040;4.634;2023-04-12T07:37:12;12.50;;;2.15;;
70997;SDS011;58663;52.040;4.634;2023-04-12T07:39:38;12.77;;;2.50;;
70997;SDS011;58663;52.040;4.634;2023-04-12T07:42:04;8.63;;;2.25;;
70997;SDS011;58663;52.040;4.634;2023-04-12T07:44:30;16.08;;;2.47;;
70997;SDS011;58663;52.040;4.634;2023-04-12T07:46:57;13.82;;;2.60;;
70997;SDS011;58663;52.040;4.634;2023-04-12T07:49:23;15.45;;;2.42;;
70997;SDS011;58663;52.040;4.634;2023-04-12T07:51:48;15.25;;;2.45;;
70997;SDS011;58663;52.040;4.634;2023-04-12T07:54:13;16.20;;;2.20;;
70997;SDS011;58663;52.040;4.634;2023-04-12T07:56:39;23.50;;;2.85;;
70997;SDS011;58663;52.040;4.634;2023-04-12T07:59:04;12.00;;;1.83;;
70997;SDS011;58663;52.040;4.634;2023-04-12T08:01:30;15.40;;;2.13;;
70997;SDS011;58663;52.040;4.634;2023-04-12T08:03:55;15.35;;;2.90;;
70997;SDS011;58663;52.040;4.634;2023-04-12T08:06:21;10.23;;;1.92;;
70997;SDS011;58663;52.040;4.634;2023-04-12T08:08:46;12.10;;;2.63;;
70997;SDS011;58663;52.040;4.634;2023-04-12T08:11:12;14.35;;;2.90;;
70997;SDS011;58663;52.040;4.634;2023-04-12T08:13:37;14.13;;;2.33;;
70997;SDS011;58663;52.040;4.634;2023-04-12T08:16:02;9.55;;;2.65;;
70997;SDS011;58663;52.040;4.634;2023-04-12T08:18:28;14.88;;;2.47;;
70997;SDS011;58663;52.040;4.634;2023-04-12T08:20:56;17.92;;;2.33;;
70997;SDS011;58663;52.040;4.634;2023-04-12T08:23:22;12.70;;;2.35;;
70997;SDS011;58663;52.040;4.634;2023-04-12T08:25:48;12.52;;;2.40;;
70997;SDS011;58663;52.040;4.634;2023-04-12T08:28:13;15.10;;;2.15;;
70997;SDS011;58663;52.040;4.634;2023-04-12T08:30:38;11.38;;;1.85;;
70997;SDS011;58663;52.040;4.634;2023-04-12T08:33:04;19.90;;;3.65;;
70997;SDS011;58663;52.040;4.634;2023-04-12T08:35:29;24.17;;;3.17;;
70997;SDS011;58663;52.040;4.634;2023-04-12T08:37:55;18.10;;;1.80;;
70997;SDS011;58663;52.040;4.634;2023-04-12T08:40:21;7.35;;;1.90;;
70997;SDS011;58663;52.040;4.634;2023-04-12T08:42:46;10.43;;;2.30;;
70997;SDS011;58663;52.040;4.634;2023-04-12T08:45:12;17.02;;;3.00;;
70997;SDS011;58663;52.040;4.634;2023-04-12T08:47:38;12.55;;;2.35;;
70997;SDS011;58663;52.040;4.634;2023-04-12T08:50:05;14.65;;;3.13;;
70997;SDS011;58663;52.040;4.634;2023-04-12T08:52:35;12.83;;;2.10;;
70997;SDS011;58663;52.040;4.634;2023-04-12T08:55:02;22.92;;;3.00;;
70997;SDS011;58663;52.040;4.634;2023-04-12T08:57:28;13.52;;;2.47;;
70997;SDS011;58663;52.040;4.634;2023-04-12T08:59:53;15.32;;;4.07;;
70997;SDS011;58663;52.040;4.634;2023-04-12T09:02:19;15.18;;;1.83;;
70997;SDS011;58663;52.040;4.634;2023-04-12T09:04:48;19.20;;;2.05;;
70997;SDS011;58663;52.040;4.634;2023-04-12T09:07:14;18.20;;;2.45;;
70997;SDS011;58663;52.040;4.634;2023-04-12T09:09:41;9.45;;;1.67;;
70997;SDS011;58663;52.040;4.634;2023-04-12T09:12:10;17.50;;;3.13;;
70997;SDS011;58663;52.040;4.634;2023-04-12T09:14:36;7.80;;;1.65;;
70997;SDS011;58663;52.040;4.634;2023-04-12T09:17:02;13.00;;;1.83;;
70997;SDS011;58663;52.040;4.634;2023-04-12T09:19:31;8.32;;;1.90;;
70997;SDS011;58663;52.040;4.634;2023-04-12T09:21:58;8.77;;;1.77;;
70997;SDS011;58663;52.040;4.634;2023-04-12T09:24:23;14.43;;;1.92;;
70997;SDS011;58663;52.040;4.634;2023-04-12T09:27:04;7.47;;;2.15;;
70997;SDS011;58663;52.040;4.634;2023-04-12T09:29:30;7.18;;;1.58;;
70997;SDS011;58663;52.040;4.634;2023-04-12T09:32:00;9.70;;;1.83;;
70997;SDS011;58663;52.040;4.634;2023-04-12T09:34:32;8.50;;;2.22;;
70997;SDS011;58663;52.040;4.634;2023-04-12T09:37:11;15.02;;;2.22;;
70997;SDS011;58663;52.040;4.634;2023-04-12T09:39:40;9.88;;;2.17;;
70997;SDS011;58663;52.040;4.634;2023-04-12T09:42:09;9.25;;;2.42;;
70997;SDS011;58663;52.040;4.634;2023-04-12T09:44:35;19.13;;;2.85;;
70997;SDS011;58663;52.040;4.634;2023-04-12T09:47:01;12.73;;;3.03;;
70997;SDS011;58663;52.040;4.634;2023-04-12T09:49:35;12.43;;;1.90;;
70997;SDS011;58663;52.040;4.634;2023-04-12T09:52:09;9.45;;;1.83;;
70997;SDS011;58663;52.040;4.634;2023-04-12T09:54:41;19.40;;;2.30;;
70997;SDS011;58663;52.040;4.634;2023-04-12T09:57:11;11.57;;;2.47;;
70997;SDS011;58663;52.040;4.634;2023-04-12T09:59:38;18.85;;;3.03;;
70997;SDS011;58663;52.040;4.634;2023-04-12T10:02:18;13.38;;;2.72;;
70997;SDS011;58663;52.040;4.634;2023-04-12T10:04:46;13.25;;;2.35;;
70997;SDS011;58663;52.040;4.634;2023-04-12T10:07:12;10.23;;;2.15;;
70997;SDS011;58663;52.040;4.634;2023-04-12T10:09:38;16.73;;;2.90;;
70997;SDS011;58663;52.040;4.634;2023-04-12T10:12:04;18.70;;;2.40;;
70997;SDS011;58663;52.040;4.634;2023-04-12T10:14:30;9.57;;;1.90;;
70997;SDS011;58663;52.040;4.634;2023-04-12T10:16:56;9.43;;;1.58;;
70997;SDS011;58663;52.040;4.634;2023-04-12T10:19:24;6.13;;;1.50;;
70997;SDS011;58663;52.040;4.634;2023-04-12T10:21:50;10.35;;;1.80;;
70997;SDS011;58663;52.040;4.634;2023-04-12T10:24:16;6.50;;;1.80;;
70997;SDS011;58663;52.040;4.634;2023-04-12T10:26:42;7.07;;;1.52;;
70997;SDS011;58663;52.040;4.634;2023-04-12T10:31:55;10.00;;;2.00;;
70997;SDS011;58663;52.040;4.634;2023-04-12T10:34:41;15.18;;;2.25;;
70997;SDS011;58663;52.040;4.634;2023-04-12T10:37:06;10.88;;;2.28;;
70997;SDS011;58663;52.040;4.634;2023-04-12T10:39:39;16.90;;;2.20;;
70997;SDS011;58663;52.040;4.634;2023-04-12T10:44:52;7.15;;;1.55;;
70997;SDS011;58663;52.040;4.634;2023-04-12T10:50:24;6.75;;;1.98;;
70997;SDS011;58663;52.040;4.634;2023-04-12T10:55:49;11.48;;;1.77;;
70997;SDS011;58663;52.040;4.634;2023-04-12T11:01:14;5.83;;;1.37;;
70997;SDS011;58663;52.040;4.634;2023-04-12T11:06:40;9.57;;;1.63;;
70997;SDS011;58663;52.040;4.634;2023-04-12T11:09:05;3.22;;;1.00;;
70997;SDS011;58663;52.040;4.634;2023-04-12T11:11:33;6.70;;;1.83;;
70997;SDS011;58663;52.040;4.634;2023-04-12T11:13:58;5.63;;;1.17;;
70997;SDS011;58663;52.040;4.634;2023-04-12T11:16:26;6.30;;;1.25;;
70997;SDS011;58663;52.040;4.634;2023-04-12T11:18:51;6.15;;;1.50;;
70997;SDS011;58663;52.040;4.634;2023-04-12T11:21:19;6.50;;;1.10;;
70997;SDS011;58663;52.040;4.634;2023-04-12T11:23:44;7.85;;;1.33;;
70997;SDS011;58663;52.040;4.634;2023-04-12T11:26:10;4.47;;;1.02;;
70997;SDS011;58663;52.040;4.634;2023-04-12T11:28:36;8.98;;;2.95;;
70997;SDS011;58663;52.040;4.634;2023-04-12T11:31:01;8.07;;;1.85;;
70997;SDS011;58663;52.040;4.634;2023-04-12T11:33:45;6.00;;;2.05;;
70997;SDS011;58663;52.040;4.634;2023-04-12T11:36:11;7.10;;;1.10;;
70997;SDS011;58663;52.040;4.634;2023-04-12T11:38:37;4.53;;;1.20;;
70997;SDS011;58663;52.040;4.634;2023-04-12T11:41:03;2.08;;;0.90;;
70997;SDS011;58663;52.040;4.634;2023-04-12T11:43:30;2.13;;;0.70;;
70997;SDS011;58663;52.040;4.634;2023-04-12T11:45:57;2.88;;;0.93;;
70997;SDS011;58663;52.040;4.634;2023-04-12T11:48:23;7.10;;;0.98;;
70997;SDS011;58663;52.040;4.634;2023-04-12T11:50:49;8.15;;;1.10;;
70997;SDS011;58663;52.040;4.634;2023-04-12T11:53:15;3.88;;;0.98;;
70997;SDS011;58663;52.040;4.634;2023-04-12T11:55:46;7.63;;;0.90;;
70997;SDS011;58663;52.040;4.634;2023-04-12T11:58:12;2.05;;;0.70;;
70997;SDS011;58663;52.040;4.634;2023-04-12T12:00:38;3.40;;;0.82;;
70997;SDS011;58663;52.040;4.634;2023-04-12T12:03:05;2.60;;;0.90;;
70997;SDS011;58663;52.040;4.634;2023-04-12T12:05:31;3.35;;;0.93;;
70997;SDS011;58663;52.040;4.634;2023-04-12T12:08:00;3.10;;;1.05;;
70997;SDS011;58663;52.040;4.634;2023-04-12T12:10:29;2.85;;;0.95;;
70997;SDS011;58663;52.040;4.634;2023-04-12T12:12:56;3.70;;;0.95;;
70997;SDS011;58663;52.040;4.634;2023-04-12T12:15:22;3.92;;;0.80;;
70997;SDS011;58663;52.040;4.634;2023-04-12T12:17:49;5.13;;;1.10;;
70997;SDS011;58663;52.040;4.634;2023-04-12T12:20:18;4.00;;;0.80;;
70997;SDS011;58663;52.040;4.634;2023-04-12T12:22:45;6.10;;;1.67;;
70997;SDS011;58663;52.040;4.634;2023-04-12T12:25:11;7.30;;;1.30;;
70997;SDS011;58663;52.040;4.634;2023-04-12T12:27:37;6.30;;;1.20;;
70997;SDS011;58663;52.040;4.634;2023-04-12T12:30:07;4.60;;;1.10;;
70997;SDS011;58663;52.040;4.634;2023-04-12T12:32:34;2.33;;;0.70;;
70997;SDS011;58663;52.040;4.634;2023-04-12T12:35:01;4.32;;;0.93;;
70997;SDS011;58663;52.040;4.634;2023-04-12T12:37:28;6.32;;;0.70;;
70997;SDS011;58663;52.040;4.634;2023-04-12T12:40:04;2.58;;;0.93;;
70997;SDS011;58663;52.040;4.634;2023-04-12T12:45:15;8.63;;;1.08;;
70997;SDS011;58663;52.040;4.634;2023-04-12T12:50:33;4.93;;;1.08;;
70997;SDS011;58663;52.040;4.634;2023-04-12T12:52:59;12.13;;;3.42;;
70997;SDS011;58663;52.040;4.634;2023-04-12T12:55:25;8.80;;;1.20;;
70997;SDS011;58663;52.040;4.634;2023-04-12T12:57:52;13.00;;;2.20;;
70997;SDS011;58663;52.040;4.634;2023-04-12T13:00:18;8.18;;;1.67;;
70997;SDS011;58663;52.040;4.634;2023-04-12T13:02:46;1.55;;;0.90;;
70997;SDS011;58663;52.040;4.634;2023-04-12T13:05:12;8.10;;;1.17;;
70997;SDS011;58663;52.040;4.634;2023-04-12T13:07:37;6.13;;;1.48;;
70997;SDS011;58663;52.040;4.634;2023-04-12T13:10:03;4.25;;;1.05;;
70997;SDS011;58663;52.040;4.634;2023-04-12T13:12:29;4.78;;;1.35;;
70997;SDS011;58663;52.040;4.634;2023-04-12T13:14:55;5.30;;;1.25;;
70997;SDS011;58663;52.040;4.634;2023-04-12T13:17:20;7.55;;;1.08;;
70997;SDS011;58663;52.040;4.634;2023-04-12T13:19:46;9.35;;;1.38;;
70997;SDS011;58663;52.040;4.634;2023-04-12T13:22:15;3.30;;;0.70;;
70997;SDS011;58663;52.040;4.634;2023-04-12T13:24:43;6.07;;;2.05;;
70997;SDS011;58663;52.040;4.634;2023-04-12T13:27:08;4.07;;;0.90;;
70997;SDS011;58663;52.040;4.634;2023-04-12T13:29:34;3.95;;;1.30;;
70997;SDS011;58663;52.040;4.634;2023-04-12T13:32:00;3.35;;;0.80;;
70997;SDS011;58663;52.040;4.634;2023-04-12T13:34:25;4.63;;;0.90;;
70997;SDS011;58663;52.040;4.634;2023-04-12T13:36:51;2.13;;;0.80;;
70997;SDS011;58663;52.040;4.634;2023-04-12T13:39:16;2.25;;;0.88;;
70997;SDS011;58663;52.040;4.634;2023-04-12T13:41:42;4.55;;;0.90;;
70997;SDS011;58663;52.040;4.634;2023-04-12T13:44:07;2.08;;;1.10;;
70997;SDS011;58663;52.040;4.634;2023-04-12T13:46:33;4.63;;;1.13;;
70997;SDS011;58663;52.040;4.634;2023-04-12T13:48:58;1.48;;;0.70;;
70997;SDS011;58663;52.040;4.634;2023-04-12T13:51:23;1.17;;;0.63;;
70997;SDS011;58663;52.040;4.634;2023-04-12T13:53:50;3.17;;;0.95;;
70997;SDS011;58663;52.040;4.634;2023-04-12T13:56:16;3.20;;;1.00;;
70997;SDS011;58663;52.040;4.634;2023-04-12T13:58:42;8.43;;;1.10;;
70997;SDS011;58663;52.040;4.634;2023-04-12T14:01:07;2.92;;;1.35;;
70997;SDS011;58663;52.040;4.634;2023-04-12T14:03:33;1.55;;;0.80;;
70997;SDS011;58663;52.040;4.634;2023-04-12T14:05:59;2.47;;;0.88;;
70997;SDS011;58663;52.040;4.634;2023-04-12T14:08:25;2.38;;;1.05;;
70997;SDS011;58663;52.040;4.634;2023-04-12T14:10:51;2.90;;;0.70;;
70997;SDS011;58663;52.040;4.634;2023-04-12T14:13:18;1.23;;;0.88;;
70997;SDS011;58663;52.040;4.634;2023-04-12T14:15:43;2.88;;;0.80;;
70997;SDS011;58663;52.040;4.634;2023-04-12T14:32:53;2.60;;;0.85;;
70997;SDS011;58663;52.040;4.634;2023-04-12T14:35:19;2.83;;;0.80;;
70997;SDS011;58663;52.040;4.634;2023-04-12T14:37:44;6.60;;;0.95;;
70997;SDS011;58663;52.040;4.634;2023-04-12T14:40:11;1.58;;;0.70;;
70997;SDS011;58663;52.040;4.634;2023-04-12T14:42:36;9.85;;;1.13;;
70997;SDS011;58663;52.040;4.634;2023-04-12T14:45:01;2.47;;;0.93;;
70997;SDS011;58663;52.040;4.634;2023-04-12T14:47:29;4.72;;;1.10;;
70997;SDS011;58663;52.040;4.634;2023-04-12T14:49:54;3.28;;;0.90;;
70997;SDS011;58663;52.040;4.634;2023-04-12T14:52:20;3.45;;;1.20;;
70997;SDS011;58663;52.040;4.634;2023-04-12T15:11:11;7.85;;;1.10;;
70997;SDS011;58663;52.040;4.634;2023-04-12T15:13:37;12.43;;;1.58;;
70997;SDS011;58663;52.040;4.634;2023-04-12T15:16:06;2.90;;;1.10;;
70997;SDS011;58663;52.040;4.634;2023-04-12T15:21:03;5.05;;;1.05;;
70997;SDS011;58663;52.040;4.634;2023-04-12T15:23:34;10.02;;;2.00;;
70997;SDS011;58663;52.040;4.634;2023-04-12T15:26:00;2.97;;;1.05;;
70997;SDS011;58663;52.040;4.634;2023-04-12T15:28:26;3.08;;;1.35;;
70997;SDS011;58663;52.040;4.634;2023-04-12T15:30:52;5.05;;;1.40;;
70997;SDS011;58663;52.040;4.634;2023-04-12T15:33:18;49.22;;;3.55;;
70997;SDS011;58663;52.040;4.634;2023-04-12T15:35:44;31.20;;;2.00;;
70997;SDS011;58663;52.040;4.634;2023-04-12T15:38:10;3.70;;;1.17;;
70997;SDS011;58663;52.040;4.634;2023-04-12T15:40:36;9.50;;;1.65;;
70997;SDS011;58663;52.040;4.634;2023-04-12T15:43:01;8.32;;;1.23;;
70997;SDS011;58663;52.040;4.634;2023-04-12T15:45:27;4.80;;;1.25;;
70997;SDS011;58663;52.040;4.634;2023-04-12T15:47:52;24.38;;;1.80;;
70997;SDS011;58663;52.040;4.634;2023-04-12T15:50:19;24.50;;;2.10;;
70997;SDS011;58663;52.040;4.634;2023-04-12T15:52:45;17.63;;;2.05;;